sensor_id;sensor_type;location;lat;lon;timestamp;P1;durP1;ratioP1;P2;durP2;ratioP2
22152;SDS011;11242;50.536;12.688;2023-04-29T00:00:42;9.90;;;7.88;;
22152;SDS011;11242;50.536;12.688;2023-04-29T00:03:07;8.40;;;7.00;;
22152;SDS011;11242;50.536;12.688;2023-04-29T00:05:33;9.90;;;8.50;;
22152;SDS011;11242;50.536;12.688;2023-04-29T00:07:59;10.75;;;8.77;;
22152;SDS011;11242;50.536;12.688;2023-04-29T00:10:25;8.95;;;8.05;;
22152;SDS011;11242;50.536;12.688;2023-04-29T00:12:51;8.88;;;7.97;;
22152;SDS011;11242;50.536;12.688;2023-04-29T00:15:17;9.63;;;8.50;;
22152;SDS011;11242;50.536;12.688;2023-04-29T00:17:42;9.55;;;8.00;;
22152;SDS011;11242;50.536;12.688;2023-04-29T00:20:09;9.70;;;8.32;;
22152;SDS011;11242;50.536;12.688;2023-04-29T00:22:36;9.38;;;8.40;;
22152;SDS011;11242;50.536;12.688;2023-04-29T00:25:03;10.15;;;8.05;;
22152;SDS011;11242;50.536;12.688;2023-04-29T00:27:29;7.90;;;7.10;;
22152;SDS011;11242;50.536;12.688;2023-04-29T00:29:55;9.20;;;7.50;;
22152;SDS011;11242;50.536;12.688;2023-04-29T00:32:21;9.13;;;7.57;;
22152;SDS011;11242;50.536;12.688;2023-04-29T00:34:47;8.70;;;7.78;;
22152;SDS011;11242;50.536;12.688;2023-04-29T00:37:13;9.50;;;8.48;;
22152;SDS011;11242;50.536;12.688;2023-04-29T00:39:38;7.53;;;6.82;;
22152;SDS011;11242;50.536;12.688;2023-04-29T00:42:04;8.32;;;7.53;;
22152;SDS011;11242;50.536;12.688;2023-04-29T00:44:30;8.85;;;8.05;;
22152;SDS011;11242;50.536;12.688;2023-04-29T00:46:56;9.43;;;8.35;;
22152;SDS011;11242;50.536;12.688;2023-04-29T00:49:23;9.48;;;8.20;;
22152;SDS011;11242;50.536;12.688;2023-04-29T00:51:49;9.50;;;8.50;;
22152;SDS011;11242;50.536;12.688;2023-04-29T00:54:15;11.30;;;9.43;;
22152;SDS011;11242;50.536;12.688;2023-04-29T00:56:41;11.43;;;10.00;;
22152;SDS011;11242;50.536;12.688;2023-04-29T00:59:10;11.98;;;9.88;;
22152;SDS011;11242;50.536;12.688;2023-04-29T01:01:37;12.27;;;10.23;;
22152;SDS011;11242;50.536;12.688;2023-04-29T01:07:53;12.82;;;10.68;;
22152;SDS011;11242;50.536;12.688;2023-04-29T01:11:01;12.55;;;10.60;;
22152;SDS011;11242;50.536;12.688;2023-04-29T01:16:10;12.98;;;11.15;;
22152;SDS011;11242;50.536;12.688;2023-04-29T01:18:42;14.05;;;12.05;;
22152;SDS011;11242;50.536;12.688;2023-04-29T01:21:16;12.75;;;11.38;;
22152;SDS011;11242;50.536;12.688;2023-04-29T01:23:43;13.75;;;11.38;;
22152;SDS011;11242;50.536;12.688;2023-04-29T01:26:09;12.68;;;11.32;;
22152;SDS011;11242;50.536;12.688;2023-04-29T01:28:55;12.07;;;10.77;;
22152;SDS011;11242;50.536;12.688;2023-04-29T01:31:45;13.10;;;10.82;;
22152;SDS011;11242;50.536;12.688;2023-04-29T01:34:22;12.07;;;10.15;;
22152;SDS011;11242;50.536;12.688;2023-04-29T01:37:06;11.85;;;10.23;;
22152;SDS011;11242;50.536;12.688;2023-04-29T01:39:45;12.95;;;11.10;;
22152;SDS011;11242;50.536;12.688;2023-04-29T01:42:27;13.10;;;11.05;;
22152;SDS011;11242;50.536;12.688;2023-04-29T01:45:05;15.45;;;12.00;;
22152;SDS011;11242;50.536;12.688;2023-04-29T01:47:34;14.73;;;11.52;;
22152;SDS011;11242;50.536;12.688;2023-04-29T01:50:01;13.77;;;11.65;;
22152;SDS011;11242;50.536;12.688;2023-04-29T01:52:28;15.35;;;11.20;;
22152;SDS011;11242;50.536;12.688;2023-04-29T01:54:55;15.32;;;11.77;;
22152;SDS011;11242;50.536;12.688;2023-04-29T01:57:22;15.60;;;11.32;;
22152;SDS011;11242;50.536;12.688;2023-04-29T01:59:56;14.07;;;11.70;;
22152;SDS011;11242;50.536;12.688;2023-04-29T02:02:41;14.93;;;11.50;;
22152;SDS011;11242;50.536;12.688;2023-04-29T02:05:22;12.40;;;11.02;;
22152;SDS011;11242;50.536;12.688;2023-04-29T02:07:54;14.10;;;11.10;;
22152;SDS011;11242;50.536;12.688;2023-04-29T02:10:20;14.55;;;11.60;;
22152;SDS011;11242;50.536;12.688;2023-04-29T02:12:48;16.42;;;13.18;;
22152;SDS011;11242;50.536;12.688;2023-04-29T02:15:14;12.20;;;10.45;;
22152;SDS011;11242;50.536;12.688;2023-04-29T02:17:41;13.23;;;10.73;;
22152;SDS011;11242;50.536;12.688;2023-04-29T02:20:07;13.27;;;10.93;;
22152;SDS011;11242;50.536;12.688;2023-04-29T02:22:34;14.77;;;11.13;;
22152;SDS011;11242;50.536;12.688;2023-04-29T02:25:01;13.07;;;10.32;;
22152;SDS011;11242;50.536;12.688;2023-04-29T02:27:27;15.55;;;12.05;;
22152;SDS011;11242;50.536;12.688;2023-04-29T02:29:52;18.63;;;14.93;;
22152;SDS011;11242;50.536;12.688;2023-04-29T02:32:18;14.98;;;12.25;;
22152;SDS011;11242;50.536;12.688;2023-04-29T02:34:46;13.68;;;11.25;;
22152;SDS011;11242;50.536;12.688;2023-04-29T02:37:13;12.30;;;10.43;;
22152;SDS011;11242;50.536;12.688;2023-04-29T02:39:39;15.50;;;12.07;;
22152;SDS011;11242;50.536;12.688;2023-04-29T02:42:05;13.18;;;11.10;;
22152;SDS011;11242;50.536;12.688;2023-04-29T02:44:31;11.55;;;9.88;;
22152;SDS011;11242;50.536;12.688;2023-04-29T02:46:57;10.95;;;9.57;;
22152;SDS011;11242;50.536;12.688;2023-04-29T02:49:23;11.25;;;10.05;;
22152;SDS011;11242;50.536;12.688;2023-04-29T02:51:49;12.68;;;9.77;;
22152;SDS011;11242;50.536;12.688;2023-04-29T02:54:15;11.68;;;10.48;;
22152;SDS011;11242;50.536;12.688;2023-04-29T02:56:41;13.25;;;10.75;;
22152;SDS011;11242;50.536;12.688;2023-04-29T02:59:07;12.35;;;9.85;;
22152;SDS011;11242;50.536;12.688;2023-04-29T03:01:33;12.93;;;10.82;;
22152;SDS011;11242;50.536;12.688;2023-04-29T03:03:59;11.73;;;10.52;;
22152;SDS011;11242;50.536;12.688;2023-04-29T03:06:25;11.27;;;9.90;;
22152;SDS011;11242;50.536;12.688;2023-04-29T03:08:52;10.75;;;9.63;;
22152;SDS011;11242;50.536;12.688;2023-04-29T03:11:18;14.07;;;10.52;;
22152;SDS011;11242;50.536;12.688;2023-04-29T03:13:44;14.30;;;10.77;;
22152;SDS011;11242;50.536;12.688;2023-04-29T03:16:11;11.93;;;9.93;;
22152;SDS011;11242;50.536;12.688;2023-04-29T03:18:40;13.05;;;11.65;;
22152;SDS011;11242;50.536;12.688;2023-04-29T03:21:09;13.45;;;11.10;;
22152;SDS011;11242;50.536;12.688;2023-04-29T03:23:35;15.52;;;12.70;;
22152;SDS011;11242;50.536;12.688;2023-04-29T03:26:03;15.35;;;12.65;;
22152;SDS011;11242;50.536;12.688;2023-04-29T03:28:29;16.20;;;12.68;;
22152;SDS011;11242;50.536;12.688;2023-04-29T03:30:55;14.43;;;12.52;;
22152;SDS011;11242;50.536;12.688;2023-04-29T03:33:21;13.65;;;11.60;;
22152;SDS011;11242;50.536;12.688;2023-04-29T03:35:48;14.32;;;11.38;;
22152;SDS011;11242;50.536;12.688;2023-04-29T03:38:23;13.35;;;11.20;;
22152;SDS011;11242;50.536;12.688;2023-04-29T03:40:51;14.20;;;11.70;;
22152;SDS011;11242;50.536;12.688;2023-04-29T03:43:17;15.73;;;11.93;;
22152;SDS011;11242;50.536;12.688;2023-04-29T03:45:42;11.90;;;10.10;;
22152;SDS011;11242;50.536;12.688;2023-04-29T03:48:08;11.82;;;10.43;;
22152;SDS011;11242;50.536;12.688;2023-04-29T03:50:35;12.80;;;11.13;;
22152;SDS011;11242;50.536;12.688;2023-04-29T03:53:01;11.45;;;10.25;;
22152;SDS011;11242;50.536;12.688;2023-04-29T03:55:28;13.43;;;11.30;;
22152;SDS011;11242;50.536;12.688;2023-04-29T03:57:54;12.60;;;10.85;;
22152;SDS011;11242;50.536;12.688;2023-04-29T04:00:20;12.18;;;10.60;;
22152;SDS011;11242;50.536;12.688;2023-04-29T04:02:51;14.93;;;12.00;;
22152;SDS011;11242;50.536;12.688;2023-04-29T04:05:17;14.38;;;11.50;;
22152;SDS011;11242;50.536;12.688;2023-04-29T04:07:52;13.00;;;10.70;;
22152;SDS011;11242;50.536;12.688;2023-04-29T04:10:30;12.15;;;10.77;;
22152;SDS011;11242;50.536;12.688;2023-04-29T04:12:58;12.38;;;10.73;;
22152;SDS011;11242;50.536;12.688;2023-04-29T04:15:25;14.45;;;11.57;;
22152;SDS011;11242;50.536;12.688;2023-04-29T04:17:51;13.85;;;10.95;;
22152;SDS011;11242;50.536;12.688;2023-04-29T04:20:17;12.75;;;10.85;;
22152;SDS011;11242;50.536;12.688;2023-04-29T04:22:43;13.13;;;11.48;;
22152;SDS011;11242;50.536;12.688;2023-04-29T04:25:16;13.73;;;11.07;;
22152;SDS011;11242;50.536;12.688;2023-04-29T04:27:42;12.43;;;11.02;;
22152;SDS011;11242;50.536;12.688;2023-04-29T04:30:14;15.77;;;13.35;;
22152;SDS011;11242;50.536;12.688;2023-04-29T04:32:40;18.05;;;15.68;;
22152;SDS011;11242;50.536;12.688;2023-04-29T04:35:05;17.42;;;15.00;;
22152;SDS011;11242;50.536;12.688;2023-04-29T04:37:32;19.67;;;14.45;;
22152;SDS011;11242;50.536;12.688;2023-04-29T04:39:59;14.48;;;11.88;;
22152;SDS011;11242;50.536;12.688;2023-04-29T04:42:24;14.88;;;11.35;;
22152;SDS011;11242;50.536;12.688;2023-04-29T04:44:54;15.10;;;10.82;;
22152;SDS011;11242;50.536;12.688;2023-04-29T04:47:41;14.48;;;11.18;;
22152;SDS011;11242;50.536;12.688;2023-04-29T04:50:19;15.15;;;10.98;;
22152;SDS011;11242;50.536;12.688;2023-04-29T04:52:48;14.15;;;11.60;;
22152;SDS011;11242;50.536;12.688;2023-04-29T04:55:27;14.93;;;12.48;;
22152;SDS011;11242;50.536;12.688;2023-04-29T04:57:53;16.10;;;12.02;;
22152;SDS011;11242;50.536;12.688;2023-04-29T05:00:19;15.65;;;12.38;;
22152;SDS011;11242;50.536;12.688;2023-04-29T05:02:44;14.65;;;11.38;;
22152;SDS011;11242;50.536;12.688;2023-04-29T05:05:10;15.95;;;12.75;;
22152;SDS011;11242;50.536;12.688;2023-04-29T05:07:39;15.43;;;12.32;;
22152;SDS011;11242;50.536;12.688;2023-04-29T05:10:05;14.95;;;12.43;;
22152;SDS011;11242;50.536;12.688;2023-04-29T05:12:37;13.60;;;11.50;;
22152;SDS011;11242;50.536;12.688;2023-04-29T05:15:03;14.93;;;11.20;;
22152;SDS011;11242;50.536;12.688;2023-04-29T05:17:30;13.02;;;10.70;;
22152;SDS011;11242;50.536;12.688;2023-04-29T05:19:56;12.35;;;11.05;;
22152;SDS011;11242;50.536;12.688;2023-04-29T05:22:21;15.05;;;11.60;;
22152;SDS011;11242;50.536;12.688;2023-04-29T05:24:47;13.07;;;11.15;;
22152;SDS011;11242;50.536;12.688;2023-04-29T05:27:14;14.95;;;11.43;;
22152;SDS011;11242;50.536;12.688;2023-04-29T05:29:40;12.85;;;10.15;;
22152;SDS011;11242;50.536;12.688;2023-04-29T05:32:06;12.65;;;10.50;;
22152;SDS011;11242;50.536;12.688;2023-04-29T05:34:31;10.90;;;9.65;;
22152;SDS011;11242;50.536;12.688;2023-04-29T05:36:57;17.73;;;14.73;;
22152;SDS011;11242;50.536;12.688;2023-04-29T05:39:23;14.02;;;11.52;;
22152;SDS011;11242;50.536;12.688;2023-04-29T05:42:01;17.98;;;14.65;;
22152;SDS011;11242;50.536;12.688;2023-04-29T05:44:41;11.65;;;9.65;;
22152;SDS011;11242;50.536;12.688;2023-04-29T05:47:07;12.43;;;10.48;;
22152;SDS011;11242;50.536;12.688;2023-04-29T05:49:33;10.93;;;9.27;;
22152;SDS011;11242;50.536;12.688;2023-04-29T05:51:58;10.73;;;8.90;;
22152;SDS011;11242;50.536;12.688;2023-04-29T05:54:28;9.57;;;7.75;;
22152;SDS011;11242;50.536;12.688;2023-04-29T05:56:54;9.90;;;8.45;;
22152;SDS011;11242;50.536;12.688;2023-04-29T05:59:20;9.30;;;8.20;;
22152;SDS011;11242;50.536;12.688;2023-04-29T06:01:50;10.48;;;9.18;;
22152;SDS011;11242;50.536;12.688;2023-04-29T06:04:16;9.55;;;8.38;;
22152;SDS011;11242;50.536;12.688;2023-04-29T06:07:00;10.68;;;8.82;;
22152;SDS011;11242;50.536;12.688;2023-04-29T06:09:45;9.73;;;8.68;;
22152;SDS011;11242;50.536;12.688;2023-04-29T06:12:11;11.48;;;9.05;;
22152;SDS011;11242;50.536;12.688;2023-04-29T06:14:37;19.65;;;14.27;;
22152;SDS011;11242;50.536;12.688;2023-04-29T06:17:02;15.48;;;10.80;;
22152;SDS011;11242;50.536;12.688;2023-04-29T06:19:28;16.02;;;14.13;;
22152;SDS011;11242;50.536;12.688;2023-04-29T06:21:54;8.32;;;7.28;;
22152;SDS011;11242;50.536;12.688;2023-04-29T06:24:19;9.20;;;8.05;;
22152;SDS011;11242;50.536;12.688;2023-04-29T06:26:45;9.55;;;8.15;;
22152;SDS011;11242;50.536;12.688;2023-04-29T06:29:11;9.30;;;6.85;;
22152;SDS011;11242;50.536;12.688;2023-04-29T06:31:36;9.25;;;7.95;;
22152;SDS011;11242;50.536;12.688;2023-04-29T06:34:04;8.65;;;6.40;;
22152;SDS011;11242;50.536;12.688;2023-04-29T06:36:31;7.80;;;6.68;;
22152;SDS011;11242;50.536;12.688;2023-04-29T06:39:29;10.40;;;7.00;;
22152;SDS011;11242;50.536;12.688;2023-04-29T06:42:15;8.38;;;7.00;;
22152;SDS011;11242;50.536;12.688;2023-04-29T06:45:00;9.75;;;7.88;;
22152;SDS011;11242;50.536;12.688;2023-04-29T06:47:38;10.63;;;8.25;;
22152;SDS011;11242;50.536;12.688;2023-04-29T06:50:09;15.73;;;9.10;;
22152;SDS011;11242;50.536;12.688;2023-04-29T06:52:35;10.35;;;8.52;;
22152;SDS011;11242;50.536;12.688;2023-04-29T06:55:01;11.15;;;8.82;;
22152;SDS011;11242;50.536;12.688;2023-04-29T06:57:27;10.15;;;8.30;;
22152;SDS011;11242;50.536;12.688;2023-04-29T06:59:52;11.98;;;8.70;;
22152;SDS011;11242;50.536;12.688;2023-04-29T07:02:18;18.60;;;14.93;;
22152;SDS011;11242;50.536;12.688;2023-04-29T07:04:45;20.48;;;16.48;;
22152;SDS011;11242;50.536;12.688;2023-04-29T07:07:14;13.13;;;10.50;;
22152;SDS011;11242;50.536;12.688;2023-04-29T07:09:40;23.27;;;17.65;;
22152;SDS011;11242;50.536;12.688;2023-04-29T07:12:05;17.95;;;13.73;;
22152;SDS011;11242;50.536;12.688;2023-04-29T07:14:31;16.02;;;12.70;;
22152;SDS011;11242;50.536;12.688;2023-04-29T07:16:57;14.48;;;11.23;;
22152;SDS011;11242;50.536;12.688;2023-04-29T07:19:22;14.15;;;11.18;;
22152;SDS011;11242;50.536;12.688;2023-04-29T07:21:48;14.23;;;11.20;;
22152;SDS011;11242;50.536;12.688;2023-04-29T07:24:13;11.55;;;10.27;;
22152;SDS011;11242;50.536;12.688;2023-04-29T07:26:41;13.57;;;9.68;;
22152;SDS011;11242;50.536;12.688;2023-04-29T07:29:07;12.27;;;10.65;;
22152;SDS011;11242;50.536;12.688;2023-04-29T07:31:33;13.23;;;10.73;;
22152;SDS011;11242;50.536;12.688;2023-04-29T07:34:01;12.15;;;10.13;;
22152;SDS011;11242;50.536;12.688;2023-04-29T07:36:27;13.55;;;11.65;;
22152;SDS011;11242;50.536;12.688;2023-04-29T07:38:52;12.65;;;10.15;;
22152;SDS011;11242;50.536;12.688;2023-04-29T07:41:19;12.90;;;10.77;;
22152;SDS011;11242;50.536;12.688;2023-04-29T07:43:44;11.75;;;10.52;;
22152;SDS011;11242;50.536;12.688;2023-04-29T07:46:10;11.32;;;10.13;;
22152;SDS011;11242;50.536;12.688;2023-04-29T07:48:36;15.23;;;10.88;;
22152;SDS011;11242;50.536;12.688;2023-04-29T07:51:03;12.27;;;10.23;;
22152;SDS011;11242;50.536;12.688;2023-04-29T07:53:30;13.60;;;11.65;;
22152;SDS011;11242;50.536;12.688;2023-04-29T07:55:56;16.65;;;12.55;;
22152;SDS011;11242;50.536;12.688;2023-04-29T07:58:23;14.98;;;11.07;;
22152;SDS011;11242;50.536;12.688;2023-04-29T08:00:48;13.88;;;10.98;;
22152;SDS011;11242;50.536;12.688;2023-04-29T08:03:14;14.27;;;11.02;;
22152;SDS011;11242;50.536;12.688;2023-04-29T08:05:39;13.65;;;11.15;;
22152;SDS011;11242;50.536;12.688;2023-04-29T08:08:07;15.15;;;11.70;;
22152;SDS011;11242;50.536;12.688;2023-04-29T08:10:32;15.63;;;12.35;;
22152;SDS011;11242;50.536;12.688;2023-04-29T08:13:07;11.43;;;9.38;;
22152;SDS011;11242;50.536;12.688;2023-04-29T08:15:32;13.93;;;11.50;;
22152;SDS011;11242;50.536;12.688;2023-04-29T08:17:58;15.13;;;10.70;;
22152;SDS011;11242;50.536;12.688;2023-04-29T08:20:24;11.90;;;9.90;;
22152;SDS011;11242;50.536;12.688;2023-04-29T08:22:50;12.07;;;9.38;;
22152;SDS011;11242;50.536;12.688;2023-04-29T08:25:15;11.55;;;9.35;;
22152;SDS011;11242;50.536;12.688;2023-04-29T08:27:41;11.45;;;9.20;;
22152;SDS011;11242;50.536;12.688;2023-04-29T08:30:09;11.05;;;9.30;;
22152;SDS011;11242;50.536;12.688;2023-04-29T08:32:35;572.90;;;96.75;;
22152;SDS011;11242;50.536;12.688;2023-04-29T08:35:01;12.90;;;9.13;;
22152;SDS011;11242;50.536;12.688;2023-04-29T08:37:27;14.23;;;10.82;;
22152;SDS011;11242;50.536;12.688;2023-04-29T08:39:52;19.13;;;14.30;;
22152;SDS011;11242;50.536;12.688;2023-04-29T08:42:19;17.13;;;13.13;;
22152;SDS011;11242;50.536;12.688;2023-04-29T08:45:00;14.55;;;11.27;;
22152;SDS011;11242;50.536;12.688;2023-04-29T08:47:30;13.77;;;11.52;;
22152;SDS011;11242;50.536;12.688;2023-04-29T08:50:03;18.10;;;13.52;;
22152;SDS011;11242;50.536;12.688;2023-04-29T08:52:30;14.27;;;12.40;;
22152;SDS011;11242;50.536;12.688;2023-04-29T08:54:57;17.90;;;14.40;;
22152;SDS011;11242;50.536;12.688;2023-04-29T08:57:26;14.30;;;12.43;;
22152;SDS011;11242;50.536;12.688;2023-04-29T08:59:55;14.20;;;11.43;;
22152;SDS011;11242;50.536;12.688;2023-04-29T09:02:23;17.45;;;13.43;;
22152;SDS011;11242;50.536;12.688;2023-04-29T09:05:07;12.40;;;11.00;;
22152;SDS011;11242;50.536;12.688;2023-04-29T09:07:35;14.27;;;12.63;;
22152;SDS011;11242;50.536;12.688;2023-04-29T09:10:05;15.57;;;12.85;;
22152;SDS011;11242;50.536;12.688;2023-04-29T09:12:31;14.65;;;12.35;;
22152;SDS011;11242;50.536;12.688;2023-04-29T09:14:57;14.35;;;11.27;;
22152;SDS011;11242;50.536;12.688;2023-04-29T09:22:59;14.20;;;12.23;;
22152;SDS011;11242;50.536;12.688;2023-04-29T09:25:26;16.90;;;13.20;;
22152;SDS011;11242;50.536;12.688;2023-04-29T09:27:52;14.38;;;11.27;;
22152;SDS011;11242;50.536;12.688;2023-04-29T09:30:18;13.68;;;11.20;;
22152;SDS011;11242;50.536;12.688;2023-04-29T09:32:45;16.92;;;12.23;;
22152;SDS011;11242;50.536;12.688;2023-04-29T09:35:27;20.13;;;13.73;;
22152;SDS011;11242;50.536;12.688;2023-04-29T09:37:53;14.05;;;10.13;;
22152;SDS011;11242;50.536;12.688;2023-04-29T09:40:39;11.30;;;9.65;;
22152;SDS011;11242;50.536;12.688;2023-04-29T09:43:16;24.55;;;19.00;;
22152;SDS011;11242;50.536;12.688;2023-04-29T09:45:43;9.98;;;8.43;;
22152;SDS011;11242;50.536;12.688;2023-04-29T09:48:10;9.27;;;7.85;;
22152;SDS011;11242;50.536;12.688;2023-04-29T09:50:37;9.88;;;8.32;;
22152;SDS011;11242;50.536;12.688;2023-04-29T09:53:04;11.07;;;9.90;;
22152;SDS011;11242;50.536;12.688;2023-04-29T09:55:33;9.90;;;8.60;;
22152;SDS011;11242;50.536;12.688;2023-04-29T09:58:32;7.82;;;6.93;;
22152;SDS011;11242;50.536;12.688;2023-04-29T10:01:02;9.43;;;7.00;;
22152;SDS011;11242;50.536;12.688;2023-04-29T10:03:31;7.70;;;6.55;;
22152;SDS011;11242;50.536;12.688;2023-04-29T10:05:59;7.65;;;6.00;;
22152;SDS011;11242;50.536;12.688;2023-04-29T10:08:26;7.93;;;6.57;;
22152;SDS011;11242;50.536;12.688;2023-04-29T10:10:53;8.50;;;5.95;;
22152;SDS011;11242;50.536;12.688;2023-04-29T10:13:25;10.52;;;6.05;;
22152;SDS011;11242;50.536;12.688;2023-04-29T10:15:54;7.18;;;5.63;;
22152;SDS011;11242;50.536;12.688;2023-04-29T10:18:35;7.63;;;6.28;;
22152;SDS011;11242;50.536;12.688;2023-04-29T10:21:02;7.40;;;6.57;;
22152;SDS011;11242;50.536;12.688;2023-04-29T10:23:30;12.07;;;9.38;;
22152;SDS011;11242;50.536;12.688;2023-04-29T10:25:57;7.50;;;6.70;;
22152;SDS011;11242;50.536;12.688;2023-04-29T10:28:25;6.90;;;6.10;;
22152;SDS011;11242;50.536;12.688;2023-04-29T10:30:54;8.35;;;6.78;;
22152;SDS011;11242;50.536;12.688;2023-04-29T10:33:23;8.57;;;6.50;;
22152;SDS011;11242;50.536;12.688;2023-04-29T10:35:51;7.85;;;6.35;;
22152;SDS011;11242;50.536;12.688;2023-04-29T10:38:21;8.02;;;6.40;;
22152;SDS011;11242;50.536;12.688;2023-04-29T10:40:53;7.60;;;6.80;;
22152;SDS011;11242;50.536;12.688;2023-04-29T10:43:22;7.53;;;6.72;;
22152;SDS011;11242;50.536;12.688;2023-04-29T10:45:49;8.02;;;7.22;;
22152;SDS011;11242;50.536;12.688;2023-04-29T10:48:14;8.25;;;7.05;;
22152;SDS011;11242;50.536;12.688;2023-04-29T10:53:12;6.88;;;6.18;;
22152;SDS011;11242;50.536;12.688;2023-04-29T10:55:41;8.30;;;6.45;;
22152;SDS011;11242;50.536;12.688;2023-04-29T11:01:02;8.35;;;7.47;;
22152;SDS011;11242;50.536;12.688;2023-04-29T11:03:44;8.68;;;7.60;;
22152;SDS011;11242;50.536;12.688;2023-04-29T11:09:23;7.97;;;6.95;;
22152;SDS011;11242;50.536;12.688;2023-04-29T11:11:59;8.10;;;6.85;;
22152;SDS011;11242;50.536;12.688;2023-04-29T11:17:13;7.78;;;6.68;;
22152;SDS011;11242;50.536;12.688;2023-04-29T11:19:41;8.15;;;6.63;;
22152;SDS011;11242;50.536;12.688;2023-04-29T11:24:56;8.65;;;7.57;;
22152;SDS011;11242;50.536;12.688;2023-04-29T11:27:30;8.88;;;6.75;;
22152;SDS011;11242;50.536;12.688;2023-04-29T11:29:57;6.82;;;6.13;;
22152;SDS011;11242;50.536;12.688;2023-04-29T11:32:24;8.63;;;7.72;;
22152;SDS011;11242;50.536;12.688;2023-04-29T11:34:53;9.73;;;7.63;;
22152;SDS011;11242;50.536;12.688;2023-04-29T11:37:23;8.23;;;7.43;;
22152;SDS011;11242;50.536;12.688;2023-04-29T11:39:49;12.73;;;10.70;;
22152;SDS011;11242;50.536;12.688;2023-04-29T11:42:22;27.48;;;20.40;;
22152;SDS011;11242;50.536;12.688;2023-04-29T11:44:51;30.48;;;24.58;;
22152;SDS011;11242;50.536;12.688;2023-04-29T11:47:18;19.27;;;15.35;;
22152;SDS011;11242;50.536;12.688;2023-04-29T11:49:45;40.25;;;27.67;;
22152;SDS011;11242;50.536;12.688;2023-04-29T11:52:11;32.83;;;24.67;;
22152;SDS011;11242;50.536;12.688;2023-04-29T11:54:37;26.10;;;20.20;;
22152;SDS011;11242;50.536;12.688;2023-04-29T11:57:02;24.58;;;18.92;;
22152;SDS011;11242;50.536;12.688;2023-04-29T11:59:30;22.58;;;18.17;;
22152;SDS011;11242;50.536;12.688;2023-04-29T12:01:59;24.42;;;19.77;;
22152;SDS011;11242;50.536;12.688;2023-04-29T12:04:25;32.53;;;24.30;;
22152;SDS011;11242;50.536;12.688;2023-04-29T12:06:50;25.45;;;20.55;;
22152;SDS011;11242;50.536;12.688;2023-04-29T12:09:17;22.52;;;20.13;;
22152;SDS011;11242;50.536;12.688;2023-04-29T12:11:43;24.75;;;19.50;;
22152;SDS011;11242;50.536;12.688;2023-04-29T12:14:11;24.35;;;19.77;;
22152;SDS011;11242;50.536;12.688;2023-04-29T12:16:37;38.15;;;29.38;;
22152;SDS011;11242;50.536;12.688;2023-04-29T12:19:04;40.45;;;30.45;;
22152;SDS011;11242;50.536;12.688;2023-04-29T12:21:30;35.85;;;26.95;;
22152;SDS011;11242;50.536;12.688;2023-04-29T12:23:58;25.27;;;21.45;;
22152;SDS011;11242;50.536;12.688;2023-04-29T12:26:31;28.45;;;21.65;;
22152;SDS011;11242;50.536;12.688;2023-04-29T12:28:57;25.35;;;20.65;;
22152;SDS011;11242;50.536;12.688;2023-04-29T12:31:23;28.58;;;23.40;;
22152;SDS011;11242;50.536;12.688;2023-04-29T12:33:57;27.98;;;23.00;;
22152;SDS011;11242;50.536;12.688;2023-04-29T12:36:23;29.02;;;23.80;;
22152;SDS011;11242;50.536;12.688;2023-04-29T12:38:48;31.67;;;24.90;;
22152;SDS011;11242;50.536;12.688;2023-04-29T12:41:14;32.63;;;26.20;;
22152;SDS011;11242;50.536;12.688;2023-04-29T12:43:41;31.90;;;25.13;;
22152;SDS011;11242;50.536;12.688;2023-04-29T12:46:08;33.65;;;26.48;;
22152;SDS011;11242;50.536;12.688;2023-04-29T12:48:36;34.53;;;26.80;;
22152;SDS011;11242;50.536;12.688;2023-04-29T12:51:03;31.30;;;24.67;;
22152;SDS011;11242;50.536;12.688;2023-04-29T12:53:29;29.35;;;23.50;;
22152;SDS011;11242;50.536;12.688;2023-04-29T12:55:55;34.63;;;27.73;;
22152;SDS011;11242;50.536;12.688;2023-04-29T12:58:21;82.38;;;51.35;;
22152;SDS011;11242;50.536;12.688;2023-04-29T13:00:47;45.35;;;31.08;;
22152;SDS011;11242;50.536;12.688;2023-04-29T13:03:13;37.15;;;29.08;;
22152;SDS011;11242;50.536;12.688;2023-04-29T13:05:39;37.60;;;31.02;;
22152;SDS011;11242;50.536;12.688;2023-04-29T13:08:04;43.78;;;34.80;;
22152;SDS011;11242;50.536;12.688;2023-04-29T13:10:30;32.53;;;26.92;;
22152;SDS011;11242;50.536;12.688;2023-04-29T13:12:57;35.00;;;28.45;;
22152;SDS011;11242;50.536;12.688;2023-04-29T13:15:22;40.95;;;31.73;;
22152;SDS011;11242;50.536;12.688;2023-04-29T13:17:48;37.63;;;29.42;;
22152;SDS011;11242;50.536;12.688;2023-04-29T13:20:14;35.80;;;27.13;;
22152;SDS011;11242;50.536;12.688;2023-04-29T13:22:39;40.75;;;29.58;;
22152;SDS011;11242;50.536;12.688;2023-04-29T13:25:07;54.40;;;38.33;;
22152;SDS011;11242;50.536;12.688;2023-04-29T13:27:34;44.95;;;32.03;;
22152;SDS011;11242;50.536;12.688;2023-04-29T13:29:59;39.60;;;27.98;;
22152;SDS011;11242;50.536;12.688;2023-04-29T13:32:25;41.63;;;30.17;;
22152;SDS011;11242;50.536;12.688;2023-04-29T13:34:51;46.72;;;33.83;;
22152;SDS011;11242;50.536;12.688;2023-04-29T13:37:17;53.70;;;33.70;;
22152;SDS011;11242;50.536;12.688;2023-04-29T13:39:43;51.97;;;33.22;;
22152;SDS011;11242;50.536;12.688;2023-04-29T13:42:09;32.50;;;24.67;;
22152;SDS011;11242;50.536;12.688;2023-04-29T13:44:34;34.67;;;26.05;;
22152;SDS011;11242;50.536;12.688;2023-04-29T13:47:00;34.58;;;25.80;;
22152;SDS011;11242;50.536;12.688;2023-04-29T13:49:27;39.50;;;28.67;;
22152;SDS011;11242;50.536;12.688;2023-04-29T13:51:52;33.70;;;24.23;;
22152;SDS011;11242;50.536;12.688;2023-04-29T13:54:18;28.98;;;22.25;;
22152;SDS011;11242;50.536;12.688;2023-04-29T13:56:45;32.42;;;22.20;;
22152;SDS011;11242;50.536;12.688;2023-04-29T13:59:12;27.77;;;20.30;;
22152;SDS011;11242;50.536;12.688;2023-04-29T14:01:38;26.63;;;20.33;;
22152;SDS011;11242;50.536;12.688;2023-04-29T14:04:03;32.47;;;24.42;;
22152;SDS011;11242;50.536;12.688;2023-04-29T14:06:30;24.33;;;19.67;;
22152;SDS011;11242;50.536;12.688;2023-04-29T14:08:58;34.72;;;26.70;;
22152;SDS011;11242;50.536;12.688;2023-04-29T14:11:24;51.10;;;39.10;;
22152;SDS011;11242;50.536;12.688;2023-04-29T14:13:50;28.92;;;22.67;;
22152;SDS011;11242;50.536;12.688;2023-04-29T14:16:15;27.05;;;21.08;;
22152;SDS011;11242;50.536;12.688;2023-04-29T14:18:41;26.75;;;21.50;;
22152;SDS011;11242;50.536;12.688;2023-04-29T14:21:07;27.02;;;21.15;;
22152;SDS011;11242;50.536;12.688;2023-04-29T14:23:33;29.45;;;24.15;;
22152;SDS011;11242;50.536;12.688;2023-04-29T14:25:58;25.23;;;20.42;;
22152;SDS011;11242;50.536;12.688;2023-04-29T14:28:24;26.77;;;21.67;;
22152;SDS011;11242;50.536;12.688;2023-04-29T14:30:49;21.23;;;18.67;;
22152;SDS011;11242;50.536;12.688;2023-04-29T14:33:15;22.42;;;17.67;;
22152;SDS011;11242;50.536;12.688;2023-04-29T14:35:40;22.38;;;18.27;;
22152;SDS011;11242;50.536;12.688;2023-04-29T14:38:06;21.77;;;18.77;;
22152;SDS011;11242;50.536;12.688;2023-04-29T14:40:32;25.23;;;21.10;;
22152;SDS011;11242;50.536;12.688;2023-04-29T14:42:57;22.27;;;19.75;;
22152;SDS011;11242;50.536;12.688;2023-04-29T14:45:23;22.33;;;18.45;;
22152;SDS011;11242;50.536;12.688;2023-04-29T14:47:48;23.55;;;19.58;;